sensor_id;sensor_type;location;lat;lon;timestamp;P1;durP1;ratioP1;P2;durP2;ratioP2
7665;SDS011;3875;46.562;4.898;2023-05-07T00:00:22;2.33;;;1.70;;
7665;SDS011;3875;46.562;4.898;2023-05-07T00:02:47;2.50;;;1.60;;
7665;SDS011;3875;46.562;4.898;2023-05-07T00:05:13;2.23;;;1.90;;
7665;SDS011;3875;46.562;4.898;2023-05-07T00:07:39;2.00;;;1.67;;
7665;SDS011;3875;46.562;4.898;2023-05-07T00:10:05;1.80;;;1.70;;
7665;SDS011;3875;46.562;4.898;2023-05-07T00:12:31;2.33;;;1.83;;
7665;SDS011;3875;46.562;4.898;2023-05-07T00:15:03;2.70;;;1.90;;
7665;SDS011;3875;46.562;4.898;2023-05-07T00:17:30;4.03;;;2.00;;
7665;SDS011;3875;46.562;4.898;2023-05-07T00:19:56;3.33;;;1.90;;
7665;SDS011;3875;46.562;4.898;2023-05-07T00:22:21;2.40;;;1.67;;
7665;SDS011;3875;46.562;4.898;2023-05-07T00:24:47;2.00;;;1.70;;
7665;SDS011;3875;46.562;4.898;2023-05-07T00:27:13;1.90;;;1.70;;
7665;SDS011;3875;46.562;4.898;2023-05-07T00:29:38;2.63;;;2.00;;
7665;SDS011;3875;46.562;4.898;2023-05-07T00:32:04;2.57;;;1.90;;
7665;SDS011;3875;46.562;4.898;2023-05-07T00:34:30;3.17;;;2.00;;
7665;SDS011;3875;46.562;4.898;2023-05-07T00:36:55;2.00;;;1.90;;
7665;SDS011;3875;46.562;4.898;2023-05-07T00:39:21;4.80;;;1.80;;
7665;SDS011;3875;46.562;4.898;2023-05-07T00:41:47;3.83;;;1.70;;
7665;SDS011;3875;46.562;4.898;2023-05-07T00:44:13;1.70;;;1.60;;
7665;SDS011;3875;46.562;4.898;2023-05-07T00:46:39;2.00;;;1.70;;
7665;SDS011;3875;46.562;4.898;2023-05-07T00:49:06;1.70;;;1.60;;
7665;SDS011;3875;46.562;4.898;2023-05-07T00:51:32;1.60;;;1.43;;
7665;SDS011;3875;46.562;4.898;2023-05-07T00:54:00;2.80;;;1.40;;
7665;SDS011;3875;46.562;4.898;2023-05-07T00:56:27;1.77;;;1.60;;
7665;SDS011;3875;46.562;4.898;2023-05-07T00:58:53;1.50;;;1.40;;
7665;SDS011;3875;46.562;4.898;2023-05-07T01:01:19;1.50;;;1.40;;
7665;SDS011;3875;46.562;4.898;2023-05-07T01:03:45;2.30;;;1.33;;
7665;SDS011;3875;46.562;4.898;2023-05-07T01:06:11;1.20;;;1.17;;
7665;SDS011;3875;46.562;4.898;2023-05-07T01:08:38;3.20;;;1.73;;
7665;SDS011;3875;46.562;4.898;2023-05-07T01:11:06;2.90;;;1.63;;
7665;SDS011;3875;46.562;4.898;2023-05-07T01:13:33;1.87;;;1.30;;
7665;SDS011;3875;46.562;4.898;2023-05-07T01:16:00;2.30;;;1.90;;
7665;SDS011;3875;46.562;4.898;2023-05-07T01:18:26;1.53;;;1.43;;
7665;SDS011;3875;46.562;4.898;2023-05-07T01:20:52;1.83;;;1.33;;
7665;SDS011;3875;46.562;4.898;2023-05-07T01:23:19;1.90;;;1.07;;
7665;SDS011;3875;46.562;4.898;2023-05-07T01:25:55;2.67;;;1.50;;
7665;SDS011;3875;46.562;4.898;2023-05-07T01:28:21;1.87;;;1.40;;
7665;SDS011;3875;46.562;4.898;2023-05-07T01:30:48;1.20;;;1.10;;
7665;SDS011;3875;46.562;4.898;2023-05-07T01:33:20;1.40;;;1.30;;
7665;SDS011;3875;46.562;4.898;2023-05-07T01:35:47;1.40;;;1.27;;
7665;SDS011;3875;46.562;4.898;2023-05-07T01:38:16;1.40;;;1.23;;
7665;SDS011;3875;46.562;4.898;2023-05-07T01:40:43;1.50;;;1.40;;
7665;SDS011;3875;46.562;4.898;2023-05-07T01:43:09;1.80;;;1.20;;
7665;SDS011;3875;46.562;4.898;2023-05-07T01:45:35;1.43;;;1.33;;
7665;SDS011;3875;46.562;4.898;2023-05-07T01:48:02;1.83;;;1.30;;
7665;SDS011;3875;46.562;4.898;2023-05-07T01:50:28;1.67;;;1.40;;
7665;SDS011;3875;46.562;4.898;2023-05-07T01:52:55;2.43;;;1.60;;
7665;SDS011;3875;46.562;4.898;2023-05-07T01:55:21;1.27;;;1.10;;
7665;SDS011;3875;46.562;4.898;2023-05-07T01:57:47;1.83;;;1.20;;
7665;SDS011;3875;46.562;4.898;2023-05-07T02:00:13;1.33;;;1.10;;
7665;SDS011;3875;46.562;4.898;2023-05-07T02:02:39;1.73;;;0.90;;
7665;SDS011;3875;46.562;4.898;2023-05-07T02:05:05;1.40;;;1.30;;
7665;SDS011;3875;46.562;4.898;2023-05-07T02:07:31;3.03;;;1.30;;
7665;SDS011;3875;46.562;4.898;2023-05-07T02:09:56;0.80;;;0.80;;
7665;SDS011;3875;46.562;4.898;2023-05-07T02:12:22;1.90;;;1.23;;
7665;SDS011;3875;46.562;4.898;2023-05-07T02:14:48;4.67;;;1.20;;
7665;SDS011;3875;46.562;4.898;2023-05-07T02:17:14;1.40;;;1.30;;
7665;SDS011;3875;46.562;4.898;2023-05-07T02:19:40;1.20;;;1.10;;
7665;SDS011;3875;46.562;4.898;2023-05-07T02:22:06;0.90;;;0.90;;
7665;SDS011;3875;46.562;4.898;2023-05-07T02:24:32;1.10;;;1.00;;
7665;SDS011;3875;46.562;4.898;2023-05-07T02:26:57;1.20;;;1.10;;
7665;SDS011;3875;46.562;4.898;2023-05-07T02:29:23;1.60;;;1.20;;
7665;SDS011;3875;46.562;4.898;2023-05-07T02:31:49;2.23;;;1.27;;
7665;SDS011;3875;46.562;4.898;2023-05-07T02:34:18;1.90;;;1.30;;
7665;SDS011;3875;46.562;4.898;2023-05-07T02:36:44;1.60;;;1.00;;
7665;SDS011;3875;46.562;4.898;2023-05-07T02:39:10;1.20;;;1.10;;
7665;SDS011;3875;46.562;4.898;2023-05-07T02:41:37;2.40;;;1.50;;
7665;SDS011;3875;46.562;4.898;2023-05-07T02:44:02;1.53;;;1.20;;
7665;SDS011;3875;46.562;4.898;2023-05-07T02:46:28;1.33;;;1.20;;
7665;SDS011;3875;46.562;4.898;2023-05-07T02:48:54;1.40;;;1.30;;
7665;SDS011;3875;46.562;4.898;2023-05-07T02:51:20;3.23;;;1.40;;
7665;SDS011;3875;46.562;4.898;2023-05-07T02:53:47;2.27;;;1.13;;
7665;SDS011;3875;46.562;4.898;2023-05-07T02:56:13;1.00;;;1.00;;
7665;SDS011;3875;46.562;4.898;2023-05-07T02:58:38;1.43;;;1.23;;
7665;SDS011;3875;46.562;4.898;2023-05-07T03:01:05;1.40;;;1.30;;
7665;SDS011;3875;46.562;4.898;2023-05-07T03:03:31;1.53;;;1.20;;
7665;SDS011;3875;46.562;4.898;2023-05-07T03:05:57;1.73;;;1.47;;
7665;SDS011;3875;46.562;4.898;2023-05-07T03:08:22;1.50;;;1.20;;
7665;SDS011;3875;46.562;4.898;2023-05-07T03:10:48;8.07;;;1.40;;
7665;SDS011;3875;46.562;4.898;2023-05-07T03:13:14;1.47;;;1.30;;
7665;SDS011;3875;46.562;4.898;2023-05-07T03:15:40;4.87;;;1.50;;
7665;SDS011;3875;46.562;4.898;2023-05-07T03:18:05;2.27;;;1.50;;
7665;SDS011;3875;46.562;4.898;2023-05-07T03:20:31;3.47;;;1.70;;
7665;SDS011;3875;46.562;4.898;2023-05-07T03:22:57;1.20;;;1.10;;
7665;SDS011;3875;46.562;4.898;2023-05-07T03:25:23;3.97;;;1.40;;
7665;SDS011;3875;46.562;4.898;2023-05-07T03:27:48;1.63;;;1.40;;
7665;SDS011;3875;46.562;4.898;2023-05-07T03:30:14;1.80;;;1.30;;
7665;SDS011;3875;46.562;4.898;2023-05-07T03:32:40;3.33;;;1.60;;
7665;SDS011;3875;46.562;4.898;2023-05-07T03:35:06;1.80;;;1.43;;
7665;SDS011;3875;46.562;4.898;2023-05-07T03:37:32;2.30;;;1.30;;
7665;SDS011;3875;46.562;4.898;2023-05-07T03:39:58;2.47;;;1.80;;
7665;SDS011;3875;46.562;4.898;2023-05-07T03:42:23;2.33;;;1.47;;
7665;SDS011;3875;46.562;4.898;2023-05-07T03:44:49;3.60;;;2.03;;
7665;SDS011;3875;46.562;4.898;2023-05-07T03:47:15;2.13;;;1.70;;
7665;SDS011;3875;46.562;4.898;2023-05-07T03:49:41;4.60;;;2.00;;
7665;SDS011;3875;46.562;4.898;2023-05-07T03:52:06;1.43;;;1.33;;
7665;SDS011;3875;46.562;4.898;2023-05-07T03:54:32;2.00;;;1.67;;
7665;SDS011;3875;46.562;4.898;2023-05-07T03:56:57;1.73;;;1.63;;
7665;SDS011;3875;46.562;4.898;2023-05-07T03:59:23;2.37;;;1.67;;
7665;SDS011;3875;46.562;4.898;2023-05-07T04:01:49;2.23;;;1.80;;
7665;SDS011;3875;46.562;4.898;2023-05-07T04:04:15;3.33;;;1.60;;
7665;SDS011;3875;46.562;4.898;2023-05-07T04:06:40;2.50;;;1.63;;
7665;SDS011;3875;46.562;4.898;2023-05-07T04:09:06;3.87;;;1.60;;
7665;SDS011;3875;46.562;4.898;2023-05-07T04:11:32;2.70;;;1.57;;
7665;SDS011;3875;46.562;4.898;2023-05-07T04:13:58;1.77;;;1.63;;
7665;SDS011;3875;46.562;4.898;2023-05-07T04:16:24;4.07;;;1.80;;
7665;SDS011;3875;46.562;4.898;2023-05-07T04:18:49;4.53;;;1.90;;
7665;SDS011;3875;46.562;4.898;2023-05-07T04:21:19;1.83;;;1.63;;
7665;SDS011;3875;46.562;4.898;2023-05-07T04:23:46;1.90;;;1.67;;
7665;SDS011;3875;46.562;4.898;2023-05-07T04:26:13;2.27;;;1.80;;
7665;SDS011;3875;46.562;4.898;2023-05-07T04:28:39;2.40;;;1.90;;
7665;SDS011;3875;46.562;4.898;2023-05-07T04:31:05;1.77;;;1.67;;
7665;SDS011;3875;46.562;4.898;2023-05-07T04:33:31;1.73;;;1.60;;
7665;SDS011;3875;46.562;4.898;2023-05-07T04:35:58;2.27;;;2.03;;
7665;SDS011;3875;46.562;4.898;2023-05-07T04:38:28;3.33;;;1.80;;
7665;SDS011;3875;46.562;4.898;2023-05-07T04:40:55;2.60;;;1.80;;
7665;SDS011;3875;46.562;4.898;2023-05-07T04:43:22;2.67;;;2.00;;
7665;SDS011;3875;46.562;4.898;2023-05-07T04:45:49;2.03;;;1.50;;
7665;SDS011;3875;46.562;4.898;2023-05-07T04:48:16;1.87;;;1.60;;
7665;SDS011;3875;46.562;4.898;2023-05-07T04:50:44;1.97;;;1.77;;
7665;SDS011;3875;46.562;4.898;2023-05-07T04:53:12;3.50;;;1.67;;
7665;SDS011;3875;46.562;4.898;2023-05-07T04:55:37;2.00;;;1.43;;
7665;SDS011;3875;46.562;4.898;2023-05-07T04:58:03;2.47;;;1.40;;
7665;SDS011;3875;46.562;4.898;2023-05-07T05:00:29;5.23;;;1.80;;
7665;SDS011;3875;46.562;4.898;2023-05-07T05:02:55;2.23;;;1.70;;
7665;SDS011;3875;46.562;4.898;2023-05-07T05:05:21;3.63;;;1.50;;
7665;SDS011;3875;46.562;4.898;2023-05-07T05:07:46;1.93;;;1.60;;
7665;SDS011;3875;46.562;4.898;2023-05-07T05:10:12;1.87;;;1.60;;
7665;SDS011;3875;46.562;4.898;2023-05-07T05:12:38;2.83;;;1.70;;
7665;SDS011;3875;46.562;4.898;2023-05-07T05:15:04;1.50;;;1.40;;
7665;SDS011;3875;46.562;4.898;2023-05-07T05:17:30;2.10;;;1.60;;
7665;SDS011;3875;46.562;4.898;2023-05-07T05:19:56;2.73;;;1.80;;
7665;SDS011;3875;46.562;4.898;2023-05-07T05:22:21;1.70;;;1.50;;
7665;SDS011;3875;46.562;4.898;2023-05-07T05:24:47;1.50;;;1.40;;
7665;SDS011;3875;46.562;4.898;2023-05-07T05:27:13;3.67;;;2.07;;
7665;SDS011;3875;46.562;4.898;2023-05-07T05:29:38;3.43;;;1.63;;
7665;SDS011;3875;46.562;4.898;2023-05-07T05:32:04;2.73;;;1.70;;
7665;SDS011;3875;46.562;4.898;2023-05-07T05:34:30;1.50;;;1.40;;
7665;SDS011;3875;46.562;4.898;2023-05-07T05:36:55;2.20;;;1.60;;
7665;SDS011;3875;46.562;4.898;2023-05-07T05:39:21;1.60;;;1.40;;
7665;SDS011;3875;46.562;4.898;2023-05-07T05:41:48;1.67;;;1.53;;
7665;SDS011;3875;46.562;4.898;2023-05-07T05:44:13;2.30;;;1.80;;
7665;SDS011;3875;46.562;4.898;2023-05-07T05:46:39;2.17;;;1.80;;
7665;SDS011;3875;46.562;4.898;2023-05-07T05:49:05;2.17;;;1.80;;
7665;SDS011;3875;46.562;4.898;2023-05-07T05:51:30;1.80;;;1.70;;
7665;SDS011;3875;46.562;4.898;2023-05-07T05:53:56;1.93;;;1.73;;
7665;SDS011;3875;46.562;4.898;2023-05-07T05:56:22;2.00;;;1.60;;
7665;SDS011;3875;46.562;4.898;2023-05-07T05:58:47;3.10;;;1.70;;
7665;SDS011;3875;46.562;4.898;2023-05-07T06:01:13;1.80;;;1.70;;
7665;SDS011;3875;46.562;4.898;2023-05-07T06:03:39;3.30;;;1.43;;
7665;SDS011;3875;46.562;4.898;2023-05-07T06:06:04;1.80;;;1.70;;
7665;SDS011;3875;46.562;4.898;2023-05-07T06:08:30;2.90;;;1.50;;
7665;SDS011;3875;46.562;4.898;2023-05-07T06:10:56;2.03;;;1.50;;
7665;SDS011;3875;46.562;4.898;2023-05-07T06:13:22;1.70;;;1.40;;
7665;SDS011;3875;46.562;4.898;2023-05-07T06:15:48;2.77;;;1.40;;
7665;SDS011;3875;46.562;4.898;2023-05-07T06:18:14;1.50;;;1.40;;
7665;SDS011;3875;46.562;4.898;2023-05-07T06:20:40;2.40;;;1.33;;
7665;SDS011;3875;46.562;4.898;2023-05-07T06:23:06;1.23;;;1.13;;
7665;SDS011;3875;46.562;4.898;2023-05-07T06:25:31;1.37;;;1.27;;
7665;SDS011;3875;46.562;4.898;2023-05-07T06:27:57;1.50;;;1.40;;
7665;SDS011;3875;46.562;4.898;2023-05-07T06:30:22;1.50;;;1.30;;
7665;SDS011;3875;46.562;4.898;2023-05-07T06:32:48;2.83;;;1.40;;
7665;SDS011;3875;46.562;4.898;2023-05-07T06:35:14;1.30;;;1.20;;
7665;SDS011;3875;46.562;4.898;2023-05-07T06:37:40;1.83;;;1.33;;
7665;SDS011;3875;46.562;4.898;2023-05-07T06:40:07;2.37;;;1.20;;
7665;SDS011;3875;46.562;4.898;2023-05-07T06:42:33;1.40;;;1.30;;
7665;SDS011;3875;46.562;4.898;2023-05-07T06:45:00;2.03;;;1.27;;
7665;SDS011;3875;46.562;4.898;2023-05-07T06:47:26;0.90;;;0.90;;
7665;SDS011;3875;46.562;4.898;2023-05-07T06:49:52;1.10;;;1.10;;
7665;SDS011;3875;46.562;4.898;2023-05-07T06:52:17;1.93;;;1.00;;
7665;SDS011;3875;46.562;4.898;2023-05-07T06:54:43;1.63;;;1.00;;
7665;SDS011;3875;46.562;4.898;2023-05-07T06:57:08;1.03;;;1.03;;
7665;SDS011;3875;46.562;4.898;2023-05-07T06:59:34;2.40;;;1.00;;
7665;SDS011;3875;46.562;4.898;2023-05-07T07:02:00;1.57;;;1.03;;
7665;SDS011;3875;46.562;4.898;2023-05-07T07:04:25;2.20;;;1.30;;
7665;SDS011;3875;46.562;4.898;2023-05-07T07:06:52;1.00;;;1.00;;
7665;SDS011;3875;46.562;4.898;2023-05-07T07:09:18;1.10;;;1.03;;
7665;SDS011;3875;46.562;4.898;2023-05-07T07:11:44;1.17;;;1.13;;
7665;SDS011;3875;46.562;4.898;2023-05-07T07:14:10;2.40;;;1.23;;
7665;SDS011;3875;46.562;4.898;2023-05-07T07:16:35;1.53;;;1.27;;
7665;SDS011;3875;46.562;4.898;2023-05-07T07:19:01;1.30;;;1.20;;
7665;SDS011;3875;46.562;4.898;2023-05-07T07:21:27;1.00;;;1.00;;
7665;SDS011;3875;46.562;4.898;2023-05-07T07:23:52;4.27;;;1.20;;
7665;SDS011;3875;46.562;4.898;2023-05-07T07:26:18;1.83;;;1.50;;
7665;SDS011;3875;46.562;4.898;2023-05-07T07:28:44;1.87;;;1.40;;
7665;SDS011;3875;46.562;4.898;2023-05-07T07:31:10;1.47;;;1.37;;
7665;SDS011;3875;46.562;4.898;2023-05-07T07:33:36;1.93;;;1.33;;
7665;SDS011;3875;46.562;4.898;2023-05-07T07:36:02;1.60;;;1.50;;
7665;SDS011;3875;46.562;4.898;2023-05-07T07:38:28;2.57;;;1.30;;
7665;SDS011;3875;46.562;4.898;2023-05-07T07:40:54;2.27;;;1.67;;
7665;SDS011;3875;46.562;4.898;2023-05-07T07:43:19;1.70;;;1.60;;
7665;SDS011;3875;46.562;4.898;2023-05-07T07:45:45;3.23;;;1.43;;
7665;SDS011;3875;46.562;4.898;2023-05-07T07:48:11;1.37;;;1.27;;
7665;SDS011;3875;46.562;4.898;2023-05-07T07:50:37;5.03;;;1.50;;
7665;SDS011;3875;46.562;4.898;2023-05-07T07:53:03;1.50;;;1.40;;
7665;SDS011;3875;46.562;4.898;2023-05-07T07:55:29;1.80;;;1.40;;
7665;SDS011;3875;46.562;4.898;2023-05-07T07:57:56;1.93;;;1.60;;
7665;SDS011;3875;46.562;4.898;2023-05-07T08:00:21;4.27;;;1.33;;
7665;SDS011;3875;46.562;4.898;2023-05-07T08:02:47;3.37;;;1.60;;
7665;SDS011;3875;46.562;4.898;2023-05-07T08:05:13;1.60;;;1.30;;
7665;SDS011;3875;46.562;4.898;2023-05-07T08:07:38;1.80;;;1.40;;
7665;SDS011;3875;46.562;4.898;2023-05-07T08:10:04;2.38;;;1.50;;
7665;SDS011;3875;46.562;4.898;2023-05-07T08:12:30;2.47;;;1.70;;
7665;SDS011;3875;46.562;4.898;2023-05-07T08:14:56;3.03;;;1.20;;
7665;SDS011;3875;46.562;4.898;2023-05-07T08:17:21;2.93;;;1.40;;
7665;SDS011;3875;46.562;4.898;2023-05-07T08:19:47;1.50;;;1.40;;
7665;SDS011;3875;46.562;4.898;2023-05-07T08:22:13;1.77;;;1.37;;
7665;SDS011;3875;46.562;4.898;2023-05-07T08:24:39;1.58;;;1.48;;
7665;SDS011;3875;46.562;4.898;2023-05-07T08:27:05;2.00;;;1.50;;
7665;SDS011;3875;46.562;4.898;2023-05-07T08:29:31;1.70;;;1.40;;
7665;SDS011;3875;46.562;4.898;2023-05-07T08:31:56;1.57;;;1.30;;
7665;SDS011;3875;46.562;4.898;2023-05-07T08:34:22;4.50;;;1.83;;
7665;SDS011;3875;46.562;4.898;2023-05-07T08:36:48;1.60;;;1.50;;
7665;SDS011;3875;46.562;4.898;2023-05-07T08:39:15;3.33;;;1.80;;
7665;SDS011;3875;46.562;4.898;2023-05-07T08:41:43;1.43;;;1.23;;
7665;SDS011;3875;46.562;4.898;2023-05-07T08:44:13;2.67;;;1.50;;
7665;SDS011;3875;46.562;4.898;2023-05-07T08:46:41;1.50;;;1.40;;
7665;SDS011;3875;46.562;4.898;2023-05-07T08:49:12;1.73;;;1.40;;
7665;SDS011;3875;46.562;4.898;2023-05-07T08:51:38;2.40;;;1.47;;
7665;SDS011;3875;46.562;4.898;2023-05-07T08:54:04;1.60;;;1.40;;
7665;SDS011;3875;46.562;4.898;2023-05-07T08:56:30;2.50;;;1.40;;
7665;SDS011;3875;46.562;4.898;2023-05-07T08:58:56;1.60;;;1.50;;
7665;SDS011;3875;46.562;4.898;2023-05-07T09:01:23;2.60;;;1.40;;
7665;SDS011;3875;46.562;4.898;2023-05-07T09:03:50;1.13;;;1.10;;
7665;SDS011;3875;46.562;4.898;2023-05-07T09:06:16;2.70;;;1.50;;
7665;SDS011;3875;46.562;4.898;2023-05-07T09:08:48;2.77;;;1.40;;
7665;SDS011;3875;46.562;4.898;2023-05-07T09:11:21;2.63;;;1.37;;
7665;SDS011;3875;46.562;4.898;2023-05-07T09:13:48;1.60;;;1.20;;
7665;SDS011;3875;46.562;4.898;2023-05-07T09:16:21;1.17;;;1.17;;
7665;SDS011;3875;46.562;4.898;2023-05-07T09:18:48;1.53;;;1.00;;
7665;SDS011;3875;46.562;4.898;2023-05-07T09:21:17;0.90;;;0.90;;
7665;SDS011;3875;46.562;4.898;2023-05-07T09:23:44;1.10;;;1.07;;
7665;SDS011;3875;46.562;4.898;2023-05-07T09:26:09;1.50;;;1.40;;
7665;SDS011;3875;46.562;4.898;2023-05-07T09:28:43;1.73;;;1.10;;
7665;SDS011;3875;46.562;4.898;2023-05-07T09:31:09;1.10;;;1.00;;
7665;SDS011;3875;46.562;4.898;2023-05-07T09:33:36;2.27;;;1.13;;
7665;SDS011;3875;46.562;4.898;2023-05-07T09:36:03;1.23;;;1.13;;
7665;SDS011;3875;46.562;4.898;2023-05-07T09:38:30;1.20;;;1.10;;
7665;SDS011;3875;46.562;4.898;2023-05-07T09:41:03;1.20;;;1.10;;
7665;SDS011;3875;46.562;4.898;2023-05-07T09:43:34;1.37;;;1.27;;
7665;SDS011;3875;46.562;4.898;2023-05-07T09:46:02;1.20;;;1.10;;
7665;SDS011;3875;46.562;4.898;2023-05-07T09:48:30;1.93;;;1.13;;
7665;SDS011;3875;46.562;4.898;2023-05-07T09:50:57;1.30;;;1.20;;
7665;SDS011;3875;46.562;4.898;2023-05-07T09:53:29;2.10;;;1.10;;
7665;SDS011;3875;46.562;4.898;2023-05-07T09:55:56;3.33;;;1.20;;
7665;SDS011;3875;46.562;4.898;2023-05-07T09:58:22;1.77;;;1.30;;
7665;SDS011;3875;46.562;4.898;2023-05-07T10:00:49;1.53;;;1.30;;
7665;SDS011;3875;46.562;4.898;2023-05-07T10:03:16;5.70;;;1.30;;
7665;SDS011;3875;46.562;4.898;2023-05-07T10:05:44;1.90;;;1.20;;
7665;SDS011;3875;46.562;4.898;2023-05-07T10:08:12;1.37;;;0.90;;
7665;SDS011;3875;46.562;4.898;2023-05-07T10:10:39;1.10;;;1.10;;
7665;SDS011;3875;46.562;4.898;2023-05-07T10:13:06;1.20;;;1.10;;
7665;SDS011;3875;46.562;4.898;2023-05-07T10:15:35;1.10;;;1.10;;
7665;SDS011;3875;46.562;4.898;2023-05-07T10:18:02;3.27;;;1.20;;
7665;SDS011;3875;46.562;4.898;2023-05-07T10:20:29;1.33;;;1.23;;
7665;SDS011;3875;46.562;4.898;2023-05-07T10:22:56;1.50;;;1.00;;
7665;SDS011;3875;46.562;4.898;2023-05-07T10:25:30;1.20;;;1.10;;
7665;SDS011;3875;46.562;4.898;2023-05-07T10:27:59;1.00;;;0.90;;
7665;SDS011;3875;46.562;4.898;2023-05-07T10:33:10;2.20;;;1.27;;
7665;SDS011;3875;46.562;4.898;2023-05-07T10:35:39;1.10;;;1.00;;
7665;SDS011;3875;46.562;4.898;2023-05-07T10:38:07;1.00;;;0.90;;
7665;SDS011;3875;46.562;4.898;2023-05-07T10:40:34;1.73;;;0.90;;
7665;SDS011;3875;46.562;4.898;2023-05-07T10:43:00;1.20;;;1.10;;
7665;SDS011;3875;46.562;4.898;2023-05-07T10:45:29;1.10;;;1.00;;
7665;SDS011;3875;46.562;4.898;2023-05-07T10:50:33;2.20;;;1.00;;
7665;SDS011;3875;46.562;4.898;2023-05-07T10:55:43;1.07;;;1.07;;
7665;SDS011;3875;46.562;4.898;2023-05-07T10:58:29;2.03;;;1.10;;
7665;SDS011;3875;46.562;4.898;2023-05-07T11:00:59;1.02;;;1.02;;
7665;SDS011;3875;46.562;4.898;2023-05-07T11:03:26;1.07;;;1.07;;
7665;SDS011;3875;46.562;4.898;2023-05-07T11:14:14;1.40;;;1.30;;
7665;SDS011;3875;46.562;4.898;2023-05-07T11:17:03;1.60;;;1.20;;
7665;SDS011;3875;46.562;4.898;2023-05-07T11:25:05;2.33;;;1.27;;
7665;SDS011;3875;46.562;4.898;2023-05-07T11:27:31;1.70;;;1.50;;
7665;SDS011;3875;46.562;4.898;2023-05-07T11:29:58;1.33;;;1.23;;
7665;SDS011;3875;46.562;4.898;2023-05-07T11:32:24;1.43;;;1.10;;
7665;SDS011;3875;46.562;4.898;2023-05-07T11:34:52;1.50;;;1.40;;
7665;SDS011;3875;46.562;4.898;2023-05-07T11:37:22;2.27;;;1.30;;
7665;SDS011;3875;46.562;4.898;2023-05-07T11:39:49;2.43;;;1.20;;
7665;SDS011;3875;46.562;4.898;2023-05-07T11:42:29;6.30;;;1.50;;
7665;SDS011;3875;46.562;4.898;2023-05-07T11:44:57;2.67;;;1.50;;
7665;SDS011;3875;46.562;4.898;2023-05-07T11:47:23;1.50;;;1.40;;
7665;SDS011;3875;46.562;4.898;2023-05-07T11:49:50;1.70;;;1.20;;
7665;SDS011;3875;46.562;4.898;2023-05-07T11:52:17;4.13;;;1.40;;
7665;SDS011;3875;46.562;4.898;2023-05-07T11:54:53;2.90;;;1.40;;
7665;SDS011;3875;46.562;4.898;2023-05-07T11:57:24;6.07;;;1.40;;
7665;SDS011;3875;46.562;4.898;2023-05-07T11:59:53;4.80;;;1.47;;
7665;SDS011;3875;46.562;4.898;2023-05-07T12:02:22;1.70;;;1.50;;
7665;SDS011;3875;46.562;4.898;2023-05-07T12:04:51;2.07;;;1.43;;
7665;SDS011;3875;46.562;4.898;2023-05-07T12:07:18;2.07;;;1.20;;
7665;SDS011;3875;46.562;4.898;2023-05-07T12:09:44;1.43;;;1.27;;
7665;SDS011;3875;46.562;4.898;2023-05-07T12:12:11;3.43;;;1.60;;
7665;SDS011;3875;46.562;4.898;2023-05-07T12:14:40;1.40;;;1.20;;
7665;SDS011;3875;46.562;4.898;2023-05-07T12:17:10;1.33;;;1.23;;
7665;SDS011;3875;46.562;4.898;2023-05-07T12:19:37;3.37;;;1.30;;
7665;SDS011;3875;46.562;4.898;2023-05-07T12:22:04;1.60;;;1.27;;
7665;SDS011;3875;46.562;4.898;2023-05-07T12:24:48;2.37;;;1.30;;
7665;SDS011;3875;46.562;4.898;2023-05-07T12:27:21;2.43;;;1.40;;
7665;SDS011;3875;46.562;4.898;2023-05-07T12:29:47;1.47;;;1.37;;
7665;SDS011;3875;46.562;4.898;2023-05-07T12:32:16;3.50;;;1.60;;
7665;SDS011;3875;46.562;4.898;2023-05-07T12:34:43;8.43;;;1.77;;
7665;SDS011;3875;46.562;4.898;2023-05-07T12:37:09;2.93;;;1.63;;
7665;SDS011;3875;46.562;4.898;2023-05-07T12:39:35;3.13;;;1.60;;
7665;SDS011;3875;46.562;4.898;2023-05-07T12:42:01;2.13;;;1.30;;
7665;SDS011;3875;46.562;4.898;2023-05-07T12:44:31;2.93;;;1.47;;
7665;SDS011;3875;46.562;4.898;2023-05-07T12:46:57;1.50;;;1.40;;
7665;SDS011;3875;46.562;4.898;2023-05-07T12:49:26;2.20;;;1.53;;
7665;SDS011;3875;46.562;4.898;2023-05-07T12:51:51;3.83;;;1.80;;
7665;SDS011;3875;46.562;4.898;2023-05-07T12:54:31;4.27;;;1.90;;
7665;SDS011;3875;46.562;4.898;2023-05-07T12:59:35;1.77;;;1.67;;
7665;SDS011;3875;46.562;4.898;2023-05-07T13:02:02;6.13;;;2.35;;
7665;SDS011;3875;46.562;4.898;2023-05-07T13:04:28;4.70;;;1.80;;
7665;SDS011;3875;46.562;4.898;2023-05-07T13:06:54;4.77;;;2.20;;
7665;SDS011;3875;46.562;4.898;2023-05-07T13:09:19;7.63;;;2.33;;
7665;SDS011;3875;46.562;4.898;2023-05-07T13:11:45;2.40;;;1.93;;
7665;SDS011;3875;46.562;4.898;2023-05-07T13:14:11;3.45;;;2.50;;
7665;SDS011;3875;46.562;4.898;2023-05-07T13:16:37;4.10;;;2.17;;
7665;SDS011;3875;46.562;4.898;2023-05-07T13:19:02;3.13;;;2.37;;
7665;SDS011;3875;46.562;4.898;2023-05-07T13:21:28;3.40;;;2.30;;
7665;SDS011;3875;46.562;4.898;2023-05-07T13:23:55;3.30;;;2.77;;
7665;SDS011;3875;46.562;4.898;2023-05-07T13:26:21;11.00;;;2.73;;
7665;SDS011;3875;46.562;4.898;2023-05-07T13:28:46;5.20;;;2.53;;
7665;SDS011;3875;46.562;4.898;2023-05-07T13:31:13;3.80;;;2.53;;
7665;SDS011;3875;46.562;4.898;2023-05-07T13:33:39;6.80;;;2.63;;
7665;SDS011;3875;46.562;4.898;2023-05-07T13:36:05;3.13;;;2.17;;
7665;SDS011;3875;46.562;4.898;2023-05-07T13:38:30;5.43;;;2.80;;
7665;SDS011;3875;46.562;4.898;2023-05-07T13:40:56;5.90;;;2.60;;
7665;SDS011;3875;46.562;4.898;2023-05-07T13:43:22;3.93;;;2.30;;
7665;SDS011;3875;46.562;4.898;2023-05-07T13:45:48;4.53;;;2.10;;
7665;SDS011;3875;46.562;4.898;2023-05-07T13:48:13;3.07;;;1.90;;
7665;SDS011;3875;46.562;4.898;2023-05-07T13:50:39;2.67;;;1.63;;
7665;SDS011;3875;46.562;4.898;2023-05-07T13:53:04;2.80;;;2.10;;
7665;SDS011;3875;46.562;4.898;2023-05-07T13:55:30;3.47;;;2.20;;
7665;SDS011;3875;46.562;4.898;2023-05-07T13:57:56;6.77;;;2.27;;
7665;SDS011;3875;46.562;4.898;2023-05-07T14:00:26;3.13;;;2.30;;
7665;SDS011;3875;46.562;4.898;2023-05-07T14:02:53;3.40;;;2.30;;
7665;SDS011;3875;46.562;4.898;2023-05-07T14:05:20;4.70;;;2.50;;
7665;SDS011;3875;46.562;4.898;2023-05-07T14:07:45;4.23;;;2.30;;
7665;SDS011;3875;46.562;4.898;2023-05-07T14:10:12;2.07;;;1.77;;
7665;SDS011;3875;46.562;4.898;2023-05-07T14:12:38;2.00;;;1.80;;
7665;SDS011;3875;46.562;4.898;2023-05-07T14:15:04;2.90;;;1.80;;
7665;SDS011;3875;46.562;4.898;2023-05-07T14:17:30;2.33;;;1.80;;
7665;SDS011;3875;46.562;4.898;2023-05-07T14:19:55;2.27;;;1.80;;
7665;SDS011;3875;46.562;4.898;2023-05-07T14:22:22;2.83;;;2.13;;
7665;SDS011;3875;46.562;4.898;2023-05-07T14:24:48;2.90;;;1.90;;
7665;SDS011;3875;46.562;4.898;2023-05-07T14:27:14;3.77;;;1.80;;
7665;SDS011;3875;46.562;4.898;2023-05-07T14:29:40;1.93;;;1.80;;
7665;SDS011;3875;46.562;4.898;2023-05-07T14:32:07;3.33;;;2.10;;
7665;SDS011;3875;46.562;4.898;2023-05-07T14:34:33;1.77;;;1.67;;
7665;SDS011;3875;46.562;4.898;2023-05-07T14:36:59;1.33;;;1.23;;
7665;SDS011;3875;46.562;4.898;2023-05-07T14:39:25;1.20;;;1.10;;
7665;SDS011;3875;46.562;4.898;2023-05-07T14:41:51;3.17;;;1.23;;
7665;SDS011;3875;46.562;4.898;2023-05-07T14:44:17;4.43;;;1.10;;
7665;SDS011;3875;46.562;4.898;2023-05-07T14:46:42;2.43;;;1.07;;
7665;SDS011;3875;46.562;4.898;2023-05-07T14:49:08;1.47;;;1.20;;
7665;SDS011;3875;46.562;4.898;2023-05-07T14:51:41;2.43;;;1.17;;
7665;SDS011;3875;46.562;4.898;2023-05-07T14:54:08;4.90;;;1.80;;
7665;SDS011;3875;46.562;4.898;2023-05-07T14:56:34;1.20;;;0.67;;
7665;SDS011;3875;46.562;4.898;2023-05-07T14:59:00;2.70;;;1.03;;
7665;SDS011;3875;46.562;4.898;2023-05-07T15:01:27;0.97;;;0.90;;
7665;SDS011;3875;46.562;4.898;2023-05-07T15:03:53;4.07;;;1.20;;
7665;SDS011;3875;46.562;4.898;2023-05-07T15:06:19;5.67;;;1.70;;
7665;SDS011;3875;46.562;4.898;2023-05-07T15:08:45;4.33;;;1.03;;
7665;SDS011;3875;46.562;4.898;2023-05-07T15:11:11;1.53;;;0.67;;
7665;SDS011;3875;46.562;4.898;2023-05-07T15:13:37;1.00;;;0.90;;
7665;SDS011;3875;46.562;4.898;2023-05-07T15:16:02;1.93;;;0.97;;
7665;SDS011;3875;46.562;4.898;2023-05-07T15:18:28;0.80;;;0.70;;
7665;SDS011;3875;46.562;4.898;2023-05-07T15:20:55;1.87;;;0.87;;
7665;SDS011;3875;46.562;4.898;2023-05-07T15:23:21;2.97;;;1.00;;
7665;SDS011;3875;46.562;4.898;2023-05-07T15:25:47;6.07;;;1.30;;
7665;SDS011;3875;46.562;4.898;2023-05-07T15:28:12;2.23;;;1.07;;
7665;SDS011;3875;46.562;4.898;2023-05-07T15:30:38;1.17;;;0.90;;
7665;SDS011;3875;46.562;4.898;2023-05-07T15:33:04;2.13;;;0.83;;
7665;SDS011;3875;46.562;4.898;2023-05-07T15:35:30;1.90;;;0.80;;